Time;durP1;ratioP1;P1;durP2;ratioP2;P2;SDS_P1;SDS_P2;PMS_P1;PMS_P2;Temp;Humidity;BMP_temperature;BMP_pressure;BME280_temperature;BME280_humidity;BME280_pressure;Samples;Min_cycle;Max_cycle;Signal;HPM_P1;HPM_P2
2021/11/28 00:00:12;;;;;;;36.40;22.17;;;1.90;94.20;;;;;;5072955;28;20686;-88
2021/11/28 00:02:38;;;;;;;30.77;21.70;;;1.90;94.20;;;;;;5073130;28;20171;-87
2021/11/28 00:05:05;;;;;;;35.30;23.63;;;2.00;94.20;;;;;;5073076;28;20662;-88
2021/11/28 00:12:45;;;;;;;39.90;25.43;;;2.00;94.40;;;;;;5075763;28;20250;-86
2021/11/28 00:15:14;;;;;;;39.73;25.03;;;2.00;94.40;;;;;;5075782;28;20167;-86
2021/11/28 00:17:40;;;;;;;45.10;25.57;;;2.00;94.50;;;;;;5075609;28;20658;-86
2021/11/28 00:20:08;;;;;;;43.43;25.33;;;1.90;94.50;;;;;;5075579;28;20238;-86
2021/11/28 00:22:37;;;;;;;43.70;26.33;;;1.90;94.60;;;;;;5076970;28;20168;-88
2021/11/28 00:25:04;;;;;;;47.93;27.80;;;2.00;94.60;;;;;;5075606;28;20180;-87
2021/11/28 00:27:30;;;;;;;47.20;28.87;;;2.00;94.70;;;;;;5076712;28;20186;-87
2021/11/28 00:29:55;;;;;;;46.13;26.57;;;2.10;94.70;;;;;;5075548;28;20183;-87
2021/11/28 00:32:21;;;;;;;44.50;27.43;;;2.10;94.70;;;;;;5075389;28;20203;-88
2021/11/28 00:34:46;;;;;;;47.27;27.60;;;2.10;94.70;;;;;;5075490;28;20232;-88
2021/11/28 00:37:13;;;;;;;44.60;28.17;;;2.10;94.80;;;;;;5076716;28;20182;-87
2021/11/28 00:39:39;;;;;;;44.57;26.47;;;2.10;94.80;;;;;;5076469;28;20715;-88
2021/11/28 00:42:06;;;;;;;39.20;24.23;;;2.00;94.70;;;;;;5075212;28;20267;-88
2021/11/28 00:44:32;;;;;;;46.67;27.03;;;2.00;94.70;;;;;;5076476;28;20221;-87
2021/11/28 00:46:58;;;;;;;45.27;26.63;;;2.00;94.80;;;;;;5075357;28;20185;-87
2021/11/28 00:49:26;;;;;;;46.27;27.83;;;2.00;94.80;;;;;;5075116;28;20597;-88
2021/11/28 00:51:56;;;;;;;44.27;27.20;;;2.00;94.80;;;;;;5074956;28;20560;-87
2021/11/28 00:54:23;;;;;;;48.73;28.23;;;1.90;94.80;;;;;;5075306;28;20186;-87
2021/11/28 00:56:49;;;;;;;44.07;25.60;;;1.90;94.80;;;;;;5076196;28;20180;-87
2021/11/28 00:59:14;;;;;;;42.90;25.03;;;1.90;94.90;;;;;;5074830;28;20176;-87
2021/11/28 01:01:41;;;;;;;45.63;27.33;;;1.90;94.90;;;;;;5075957;28;20231;-87
2021/11/28 01:04:06;;;;;;;47.53;26.73;;;1.90;94.90;;;;;;5074892;28;20243;-87
2021/11/28 01:06:32;;;;;;;46.77;26.60;;;1.90;94.90;;;;;;5074792;28;20178;-88
2021/11/28 01:08:58;;;;;;;51.97;27.77;;;1.90;94.90;;;;;;5076130;28;20579;-88
2021/11/28 01:11:24;;;;;;;48.53;27.63;;;1.90;94.90;;;;;;5074646;28;20215;-88
2021/11/28 01:13:51;;;;;;;45.40;27.73;;;2.00;94.90;;;;;;5075762;28;20196;-88
2021/11/28 01:16:19;;;;;;;48.93;26.93;;;2.00;94.90;;;;;;5074513;28;20193;-87
2021/11/28 01:18:45;;;;;;;44.77;27.23;;;2.00;95.00;;;;;;5074422;28;20182;-87
2021/11/28 01:21:11;;;;;;;46.00;27.07;;;2.00;95.00;;;;;;5074163;28;20217;-87
2021/11/28 01:23:37;;;;;;;49.07;28.60;;;2.00;95.00;;;;;;5075381;28;20171;-87
2021/11/28 01:26:03;;;;;;;44.83;26.80;;;1.90;94.90;;;;;;5074348;28;20202;-86
2021/11/28 01:28:28;;;;;;;49.33;27.37;;;1.90;95.00;;;;;;5074230;28;20181;-86
2021/11/28 01:30:54;;;;;;;43.77;25.53;;;1.80;94.90;;;;;;5074176;28;20235;-87
2021/11/28 01:33:20;;;;;;;46.43;27.37;;;1.90;95.00;;;;;;5074230;28;20183;-87
2021/11/28 01:35:45;;;;;;;41.87;25.60;;;1.90;95.00;;;;;;5075440;28;20175;-87
2021/11/28 01:38:13;;;;;;;48.90;27.83;;;1.90;95.00;;;;;;5074135;28;20707;-87
2021/11/28 01:40:39;;;;;;;49.00;27.67;;;1.90;95.00;;;;;;5075164;28;20214;-87
2021/11/28 01:43:12;;;;;;;48.07;27.27;;;1.90;95.00;;;;;;5073992;28;20185;-87
2021/11/28 01:45:37;;;;;;;46.00;27.10;;;1.90;95.00;;;;;;5073954;28;20229;-87
2021/11/28 01:48:06;;;;;;;47.40;26.20;;;2.00;95.00;;;;;;5073877;28;20182;-87
2021/11/28 01:50:33;;;;;;;46.30;27.07;;;2.00;95.00;;;;;;5073802;28;20208;-87
2021/11/28 01:53:00;;;;;;;44.83;26.07;;;1.90;95.00;;;;;;5073825;28;20694;-87
2021/11/28 01:55:29;;;;;;;45.33;26.87;;;2.00;95.00;;;;;;5075254;28;20206;-87
2021/11/28 01:57:56;;;;;;;44.23;27.03;;;2.00;95.00;;;;;;5073982;28;20189;-87
2021/11/28 02:00:28;;;;;;;45.07;26.67;;;2.10;95.00;;;;;;5074791;28;20214;-87
2021/11/28 02:02:56;;;;;;;43.30;26.33;;;2.10;95.00;;;;;;5073617;28;20254;-87
2021/11/28 02:05:22;;;;;;;46.57;26.23;;;2.00;95.00;;;;;;5073542;28;20184;-87
2021/11/28 02:07:49;;;;;;;43.13;26.80;;;2.00;95.00;;;;;;5075083;28;20194;-87
2021/11/28 02:10:15;;;;;;;48.57;27.13;;;2.10;95.00;;;;;;5073329;28;20191;-87
2021/11/28 02:12:43;;;;;;;44.57;25.93;;;2.10;95.00;;;;;;5074061;28;20167;-87
2021/11/28 02:15:10;;;;;;;46.07;25.80;;;2.10;95.00;;;;;;5073426;28;20179;-87
2021/11/28 02:17:35;;;;;;;44.17;25.70;;;2.10;95.00;;;;;;5073323;28;20183;-86
2021/11/28 02:20:05;;;;;;;40.50;24.37;;;2.10;95.00;;;;;;5074417;28;20211;-86
2021/11/28 02:22:30;;;;;;;43.07;25.60;;;2.00;95.00;;;;;;5073266;28;20185;-87
2021/11/28 02:24:56;;;;;;;43.80;25.03;;;2.00;95.00;;;;;;5073242;28;20179;-86
2021/11/28 02:27:21;;;;;;;45.30;26.73;;;2.00;95.00;;;;;;5073119;28;20271;-87
2021/11/28 02:29:47;;;;;;;43.90;25.27;;;2.10;95.00;;;;;;5073071;28;20475;-87
2021/11/28 02:32:13;;;;;;;42.20;25.27;;;2.10;95.10;;;;;;5072847;28;20245;-87
2021/11/28 02:34:39;;;;;;;40.80;24.23;;;2.10;95.00;;;;;;5072362;28;20206;-87
2021/11/28 02:37:05;;;;;;;42.67;26.87;;;2.10;95.00;;;;;;5074146;28;20650;-87
2021/11/28 02:39:34;;;;;;;40.40;25.23;;;2.10;95.00;;;;;;5074051;28;20213;-87
2021/11/28 02:42:00;;;;;;;43.83;27.03;;;2.00;95.00;;;;;;5072654;28;20260;-87
2021/11/28 02:44:27;;;;;;;42.77;26.33;;;2.10;95.10;;;;;;5072754;28;20554;-87
2021/11/28 02:46:53;;;;;;;41.43;26.53;;;2.10;95.00;;;;;;5072718;28;20615;-87
2021/11/28 02:49:19;;;;;;;44.97;27.30;;;2.10;95.00;;;;;;5073959;28;20194;-87
2021/11/28 02:51:44;;;;;;;41.87;25.93;;;2.10;95.00;;;;;;5073875;28;20538;-87
2021/11/28 02:54:10;;;;;;;44.13;26.33;;;2.10;95.00;;;;;;5072559;28;20185;-87
2021/11/28 02:56:39;;;;;;;41.17;25.83;;;2.20;95.00;;;;;;5072543;28;20178;-87
2021/11/28 02:59:05;;;;;;;46.63;26.93;;;2.20;95.00;;;;;;5072505;28;20179;-87
2021/11/28 03:01:31;;;;;;;47.80;27.70;;;2.20;95.00;;;;;;5072378;28;20229;-87
2021/11/28 03:03:57;;;;;;;43.23;26.70;;;2.20;95.10;;;;;;5072353;28;20239;-87
2021/11/28 03:06:22;;;;;;;45.23;26.97;;;2.20;95.00;;;;;;5073694;28;20177;-87
2021/11/28 03:08:48;;;;;;;43.00;26.40;;;2.10;95.00;;;;;;5073612;28;20592;-87
2021/11/28 03:11:15;;;;;;;44.23;28.10;;;2.20;95.00;;;;;;5072148;28;20220;-87
2021/11/28 03:13:46;;;;;;;43.03;27.90;;;2.20;95.00;;;;;;5072331;28;20179;-87
2021/11/28 03:16:15;;;;;;;43.33;25.97;;;2.30;95.00;;;;;;5073508;28;20160;-87
2021/11/28 03:18:41;;;;;;;46.17;27.50;;;2.20;95.00;;;;;;5072195;28;20218;-87
2021/11/28 03:21:14;;;;;;;45.40;26.83;;;2.20;95.00;;;;;;5073337;28;20282;-87
2021/11/28 03:23:43;;;;;;;46.50;27.70;;;2.30;95.00;;;;;;5073808;28;20184;-87
2021/11/28 03:26:13;;;;;;;47.67;27.57;;;2.20;95.00;;;;;;5072128;28;20176;-87
2021/11/28 03:28:43;;;;;;;45.27;28.23;;;2.10;95.00;;;;;;5072303;28;20170;-86
2021/11/28 03:31:09;;;;;;;42.40;27.30;;;2.20;95.10;;;;;;5073860;28;20651;-87
2021/11/28 03:33:37;;;;;;;47.00;29.03;;;2.20;95.10;;;;;;5072174;28;20199;-87
2021/11/28 03:36:03;;;;;;;47.33;27.43;;;2.20;95.10;;;;;;5073332;28;20253;-87
2021/11/28 03:38:28;;;;;;;46.03;27.37;;;2.20;95.10;;;;;;5071980;28;20754;-87
2021/11/28 03:40:54;;;;;;;47.33;28.57;;;2.20;95.10;;;;;;5073158;28;20206;-87
2021/11/28 03:43:20;;;;;;;45.13;26.63;;;2.20;95.10;;;;;;5071928;28;20254;-87
2021/11/28 03:45:45;;;;;;;46.07;26.57;;;2.20;95.10;;;;;;5073339;28;20192;-87
2021/11/28 03:48:11;;;;;;;45.57;28.83;;;2.10;95.10;;;;;;5072310;28;20178;-87
2021/11/28 03:50:37;;;;;;;43.67;26.57;;;2.20;95.20;;;;;;5073229;28;20193;-87
2021/11/28 03:53:03;;;;;;;48.30;28.27;;;2.20;95.20;;;;;;5073536;28;20254;-87
2021/11/28 03:55:29;;;;;;;46.00;29.00;;;2.10;95.10;;;;;;5073241;28;20178;-87
2021/11/28 03:57:55;;;;;;;45.13;26.47;;;2.10;95.20;;;;;;5072082;28;20177;-87
2021/11/28 04:00:20;;;;;;;51.83;30.67;;;2.20;95.20;;;;;;5072022;28;20583;-87
2021/11/28 04:02:47;;;;;;;47.23;28.10;;;2.20;95.20;;;;;;5073136;28;20210;-87
2021/11/28 04:05:12;;;;;;;49.63;30.30;;;2.20;95.20;;;;;;5073287;28;20167;-87
2021/11/28 04:07:38;;;;;;;47.40;28.87;;;2.20;95.20;;;;;;5073350;28;20167;-87
2021/11/28 04:10:07;;;;;;;44.83;27.70;;;2.20;95.20;;;;;;5073126;28;20501;-87
2021/11/28 04:12:33;;;;;;;48.20;29.07;;;2.20;95.20;;;;;;5072060;28;20193;-87
2021/11/28 04:14:58;;;;;;;49.17;29.47;;;2.30;95.20;;;;;;5072089;28;20185;-87
2021/11/28 04:17:25;;;;;;;48.37;28.50;;;2.30;95.20;;;;;;5073364;28;20537;-87
2021/11/28 04:19:52;;;;;;;48.40;30.17;;;2.30;95.20;;;;;;5071928;28;20198;-87
2021/11/28 04:22:18;;;;;;;52.17;30.73;;;2.30;95.20;;;;;;5071715;28;20282;-87
2021/11/28 04:24:43;;;;;;;50.33;30.00;;;2.30;95.20;;;;;;5071838;28;20232;-87
2021/11/28 04:27:09;;;;;;;51.97;31.20;;;2.30;95.20;;;;;;5073206;28;20173;-86
2021/11/28 04:29:35;;;;;;;50.53;30.67;;;2.30;95.20;;;;;;5071543;28;20175;-87
2021/11/28 04:32:01;;;;;;;50.20;29.87;;;2.30;95.20;;;;;;5072849;28;20198;-87
2021/11/28 04:34:26;;;;;;;57.57;32.43;;;2.30;95.20;;;;;;5072915;28;20182;-87
2021/11/28 04:36:52;;;;;;;51.97;31.77;;;2.40;95.20;;;;;;5071605;28;20176;-87
2021/11/28 04:39:18;;;;;;;51.13;30.90;;;2.40;95.20;;;;;;5071538;28;20173;-87
2021/11/28 04:41:44;;;;;;;55.33;31.27;;;2.50;95.20;;;;;;5072637;28;20197;-87
2021/11/28 04:44:10;;;;;;;50.27;30.40;;;2.40;95.20;;;;;;5072656;28;20176;-87
2021/11/28 04:46:37;;;;;;;50.43;30.60;;;2.40;95.20;;;;;;5071499;28;20197;-87
2021/11/28 04:49:04;;;;;;;49.47;28.53;;;2.40;95.10;;;;;;5071406;28;20305;-87
2021/11/28 04:51:30;;;;;;;46.40;28.80;;;2.40;95.10;;;;;;5071240;28;20812;-87
2021/11/28 04:53:56;;;;;;;56.63;33.10;;;2.40;95.10;;;;;;5071244;28;20273;-87
2021/11/28 04:56:23;;;;;;;51.33;31.53;;;2.40;95.10;;;;;;5072495;28;20180;-87
2021/11/28 04:58:48;;;;;;;48.47;31.07;;;2.40;95.10;;;;;;5073660;28;20183;-87
2021/11/28 05:01:14;;;;;;;49.63;29.80;;;2.40;95.10;;;;;;5074685;28;20207;-86
2021/11/28 05:03:40;;;;;;;47.63;29.60;;;2.40;95.10;;;;;;5075966;28;20194;-87
2021/11/28 05:06:05;;;;;;;47.67;28.20;;;2.40;95.10;;;;;;5075945;28;20221;-87
2021/11/28 05:08:31;;;;;;;46.73;29.37;;;2.40;95.20;;;;;;5074718;28;20186;-87
2021/11/28 05:10:56;;;;;;;46.50;29.03;;;2.40;95.20;;;;;;5074509;28;20211;-87
2021/11/28 05:13:22;;;;;;;46.07;28.40;;;2.40;95.20;;;;;;5075841;28;20212;-87
2021/11/28 05:15:47;;;;;;;47.80;28.77;;;2.40;95.20;;;;;;5074744;28;20698;-87
2021/11/28 05:18:13;;;;;;;44.00;28.43;;;2.40;95.20;;;;;;5074528;28;20221;-89
2021/11/28 05:20:39;;;;;;;45.57;27.50;;;2.40;95.20;;;;;;5074376;28;20217;-89
2021/11/28 05:23:04;;;;;;;49.07;30.10;;;2.40;95.20;;;;;;5074443;28;20202;-88
2021/11/28 05:25:30;;;;;;;40.77;27.57;;;2.40;95.20;;;;;;5074520;28;20522;-88
2021/11/28 05:27:55;;;;;;;46.07;29.30;;;2.40;95.20;;;;;;5074329;28;20181;-88
2021/11/28 05:30:21;;;;;;;37.60;26.67;;;2.40;95.20;;;;;;5075584;28;20265;-88
2021/11/28 05:32:47;;;;;;;43.33;28.43;;;2.40;95.20;;;;;;5075475;28;20332;-88
2021/11/28 05:35:13;;;;;;;41.67;26.97;;;2.50;95.20;;;;;;5074245;28;20175;-88
2021/11/28 05:37:38;;;;;;;45.23;29.20;;;2.50;95.20;;;;;;5074200;28;20189;-88
2021/11/28 05:40:05;;;;;;;43.23;27.83;;;2.50;95.20;;;;;;5075268;28;20229;-88
2021/11/28 05:42:31;;;;;;;42.07;28.53;;;2.50;95.30;;;;;;5075242;28;20182;-89
2021/11/28 05:44:56;;;;;;;40.63;26.63;;;2.50;95.30;;;;;;5074055;28;20170;-88
2021/11/28 05:47:22;;;;;;;39.60;27.20;;;2.50;95.20;;;;;;5073941;28;20206;-88
2021/11/28 05:49:48;;;;;;;41.63;28.53;;;2.50;95.30;;;;;;5075179;28;20198;-88
2021/11/28 05:52:13;;;;;;;42.37;28.07;;;2.50;95.30;;;;;;5075048;28;20191;-88
2021/11/28 05:54:39;;;;;;;44.07;29.40;;;2.60;95.30;;;;;;5074095;28;20205;-88
2021/11/28 05:57:05;;;;;;;44.43;27.47;;;2.60;95.30;;;;;;5073708;28;20178;-88
2021/11/28 05:59:31;;;;;;;44.87;29.97;;;2.60;95.20;;;;;;5073727;28;20245;-88
2021/11/28 06:01:57;;;;;;;43.17;29.13;;;2.60;95.30;;;;;;5073687;28;20234;-88
2021/11/28 06:04:23;;;;;;;45.80;27.63;;;2.60;95.30;;;;;;5074888;28;20167;-88
2021/11/28 06:06:48;;;;;;;46.73;29.27;;;2.60;95.30;;;;;;5073569;28;20263;-88
2021/11/28 06:09:14;;;;;;;42.77;28.20;;;2.60;95.30;;;;;;5073966;28;20729;-88
2021/11/28 06:11:40;;;;;;;41.10;28.27;;;2.60;95.30;;;;;;5073246;28;20226;-88
2021/11/28 06:14:05;;;;;;;44.33;27.50;;;2.60;95.30;;;;;;5073463;28;20175;-88
2021/11/28 06:16:31;;;;;;;44.47;28.60;;;2.60;95.30;;;;;;5073370;28;20178;-88
2021/11/28 06:18:57;;;;;;;44.40;29.63;;;2.60;95.30;;;;;;5073338;28;20179;-88
2021/11/28 06:21:23;;;;;;;48.00;30.73;;;2.70;95.30;;;;;;5074361;28;20305;-88
2021/11/28 06:23:48;;;;;;;39.50;26.87;;;2.60;95.30;;;;;;5073238;28;20171;-88
2021/11/28 06:26:15;;;;;;;43.63;28.67;;;2.70;95.30;;;;;;5073228;28;20241;-88
2021/11/28 06:28:41;;;;;;;41.13;27.30;;;2.70;95.30;;;;;;5073350;28;20206;-88
2021/11/28 06:31:06;;;;;;;43.70;28.00;;;2.70;95.30;;;;;;5074276;28;20217;-88
2021/11/28 06:33:32;;;;;;;41.60;27.93;;;2.80;95.30;;;;;;5073128;28;20186;-88
2021/11/28 06:35:59;;;;;;;39.33;27.47;;;2.80;95.30;;;;;;5074226;28;20221;-88
2021/11/28 06:38:24;;;;;;;36.57;25.50;;;2.80;95.30;;;;;;5074277;28;20520;-89
2021/11/28 06:40:50;;;;;;;41.17;27.40;;;2.80;95.30;;;;;;5072798;28;20211;-88
2021/11/28 06:43:16;;;;;;;38.93;27.90;;;2.80;95.30;;;;;;5072891;28;20210;-88
2021/11/28 06:45:42;;;;;;;41.70;27.93;;;2.80;95.30;;;;;;5072694;28;20554;-88
2021/11/28 06:48:07;;;;;;;38.40;26.50;;;2.80;95.30;;;;;;5074041;28;20167;-88
2021/11/28 06:50:33;;;;;;;39.27;26.00;;;2.80;95.30;;;;;;5072674;28;20195;-88
2021/11/28 06:52:59;;;;;;;40.00;27.10;;;2.80;95.30;;;;;;5073965;28;20174;-88
2021/11/28 06:55:25;;;;;;;40.57;26.63;;;2.80;95.30;;;;;;5073065;28;20182;-88
2021/11/28 06:57:51;;;;;;;39.60;26.83;;;2.80;95.30;;;;;;5072615;28;20647;-88
2021/11/28 07:00:18;;;;;;;39.87;27.43;;;2.80;95.30;;;;;;5073679;28;20203;-88
2021/11/28 07:02:44;;;;;;;41.57;28.13;;;2.80;95.30;;;;;;5072477;28;20212;-88
2021/11/28 07:05:10;;;;;;;42.10;28.10;;;2.80;95.40;;;;;;5073700;28;20202;-88
2021/11/28 07:07:35;;;;;;;43.77;28.60;;;2.80;95.40;;;;;;5072420;28;20172;-88
2021/11/28 07:10:01;;;;;;;43.53;28.33;;;2.80;95.40;;;;;;5072191;28;20273;-88
2021/11/28 07:12:27;;;;;;;42.73;28.67;;;2.90;95.40;;;;;;5072601;28;20188;-88
2021/11/28 07:14:52;;;;;;;42.23;28.00;;;2.90;95.40;;;;;;5072308;28;20176;-88
2021/11/28 07:17:18;;;;;;;40.07;27.80;;;2.90;95.40;;;;;;5072157;28;20186;-87
2021/11/28 07:19:44;;;;;;;41.60;27.60;;;2.90;95.40;;;;;;5073391;28;20195;-88
2021/11/28 07:22:10;;;;;;;47.13;27.80;;;2.90;95.40;;;;;;5071815;28;20195;-88
2021/11/28 07:24:35;;;;;;;44.73;28.10;;;2.90;95.30;;;;;;5072437;28;20178;-88
2021/11/28 07:27:01;;;;;;;41.20;26.87;;;2.90;95.30;;;;;;5073342;28;20654;-89
2021/11/28 07:29:27;;;;;;;44.37;28.47;;;3.00;95.40;;;;;;5072117;28;20167;-88
2021/11/28 07:31:52;;;;;;;46.33;28.23;;;3.00;95.40;;;;;;5071994;28;20205;-88
2021/11/28 07:34:18;;;;;;;43.67;27.87;;;2.90;95.30;;;;;;5072125;28;20662;-88
2021/11/28 07:36:44;;;;;;;43.23;28.47;;;3.00;95.30;;;;;;5072084;28;20167;-88
2021/11/28 07:39:10;;;;;;;42.67;27.67;;;2.90;95.30;;;;;;5073248;28;20171;-88
2021/11/28 07:41:36;;;;;;;41.27;27.83;;;3.00;95.30;;;;;;5072220;28;20265;-88
2021/11/28 07:44:02;;;;;;;38.77;26.83;;;3.00;95.30;;;;;;5073218;28;20170;-88
2021/11/28 07:46:28;;;;;;;39.17;26.93;;;3.00;95.20;;;;;;5073229;28;20167;-88
2021/11/28 07:48:54;;;;;;;35.10;24.63;;;3.00;95.30;;;;;;5072004;28;20179;-88
2021/11/28 07:51:20;;;;;;;39.43;24.73;;;3.00;95.20;;;;;;5071760;28;20199;-88
2021/11/28 07:53:46;;;;;;;35.00;25.23;;;3.00;95.20;;;;;;5071793;28;20616;-88
2021/11/28 07:56:12;;;;;;;32.33;24.10;;;3.10;95.20;;;;;;5071784;28;20180;-88
2021/11/28 07:58:38;;;;;;;30.13;24.33;;;3.10;95.20;;;;;;5073028;28;20178;-88
2021/11/28 08:01:05;;;;;;;31.97;23.97;;;3.20;95.20;;;;;;5072885;28;20261;-88
2021/11/28 08:03:31;;;;;;;31.90;23.10;;;3.10;95.20;;;;;;5071777;28;20609;-88
2021/11/28 08:05:59;;;;;;;31.13;23.97;;;3.10;95.20;;;;;;5072331;28;20214;-88
2021/11/28 08:08:32;;;;;;;29.63;22.40;;;3.10;95.20;;;;;;5071669;28;20669;-88
2021/11/28 08:10:58;;;;;;;32.40;23.33;;;3.10;95.10;;;;;;5072795;28;20207;-88
2021/11/28 08:13:23;;;;;;;32.07;22.80;;;3.20;95.20;;;;;;5071664;28;20176;-88
2021/11/28 08:15:49;;;;;;;28.43;21.70;;;3.20;95.10;;;;;;5071590;28;20552;-88
2021/11/28 08:18:15;;;;;;;28.50;22.70;;;3.10;95.10;;;;;;5071718;28;20238;-88
2021/11/28 08:20:41;;;;;;;26.20;21.10;;;3.20;95.10;;;;;;5072987;28;20695;-88
2021/11/28 08:23:07;;;;;;;26.93;21.37;;;3.10;95.10;;;;;;5071574;28;20177;-88
2021/11/28 08:25:33;;;;;;;25.90;20.00;;;3.10;95.10;;;;;;5071626;28;20172;-87
2021/11/28 08:28:00;;;;;;;28.17;20.13;;;3.10;95.00;;;;;;5071483;28;20179;-88
2021/11/28 08:30:25;;;;;;;26.67;20.33;;;3.10;94.90;;;;;;5072716;28;20192;-87
2021/11/28 08:32:51;;;;;;;29.17;21.37;;;3.20;94.90;;;;;;5072577;28;20263;-88
2021/11/28 08:35:18;;;;;;;25.77;19.37;;;3.20;94.90;;;;;;5075333;28;20179;-88
2021/11/28 08:37:45;;;;;;;28.13;20.93;;;3.20;94.90;;;;;;5076824;28;20641;-88
2021/11/28 08:40:19;;;;;;;27.00;21.53;;;3.20;94.80;;;;;;5076549;28;20191;-87
2021/11/28 08:42:45;;;;;;;28.70;21.30;;;3.10;94.70;;;;;;5076458;28;20152;-88
2021/11/28 08:45:12;;;;;;;27.97;21.63;;;3.20;94.70;;;;;;5075108;28;20649;-88
2021/11/28 08:47:38;;;;;;;26.57;21.13;;;3.20;94.80;;;;;;5076303;28;20531;-88
2021/11/28 08:50:06;;;;;;;27.07;21.60;;;3.30;94.70;;;;;;5074999;28;20178;-88
2021/11/28 08:52:32;;;;;;;34.10;22.17;;;3.30;94.70;;;;;;5074842;28;20179;-86
2021/11/28 08:54:58;;;;;;;27.30;21.93;;;3.40;94.70;;;;;;5074853;28;20186;-86
2021/11/28 08:57:24;;;;;;;27.57;21.37;;;3.40;94.70;;;;;;5074833;28;20177;-87
2021/11/28 08:59:50;;;;;;;25.83;20.80;;;3.40;94.60;;;;;;5075981;28;20198;-87
2021/11/28 09:02:17;;;;;;;27.43;21.00;;;3.50;94.60;;;;;;5075932;28;20330;-87
2021/11/28 09:04:44;;;;;;;26.93;21.53;;;3.50;94.60;;;;;;5074702;28;20671;-86
2021/11/28 09:07:09;;;;;;;26.67;20.60;;;3.50;94.60;;;;;;5074626;28;20679;-86
2021/11/28 09:09:35;;;;;;;32.90;23.30;;;3.50;94.60;;;;;;5074513;28;20171;-86
2021/11/28 09:12:02;;;;;;;28.33;22.87;;;3.50;94.50;;;;;;5075683;28;20206;-86
2021/11/28 09:14:29;;;;;;;28.70;23.67;;;3.50;94.50;;;;;;5075720;28;20167;-86
2021/11/28 09:16:55;;;;;;;33.10;25.40;;;3.50;94.50;;;;;;5075664;28;20203;-86
2021/11/28 09:21:55;;;;;;;34.73;24.73;;;3.50;94.40;;;;;;5075934;28;20230;-86
2021/11/28 09:24:36;;;;;;;30.87;23.47;;;3.40;94.30;;;;;;5075073;28;20175;-86
2021/11/28 09:27:13;;;;;;;34.87;25.90;;;3.40;94.30;;;;;;5074700;28;20193;-86
2021/11/28 09:29:42;;;;;;;33.50;25.47;;;3.40;94.30;;;;;;5076126;28;20532;-86
2021/11/28 09:32:08;;;;;;;33.87;24.17;;;3.40;94.30;;;;;;5076385;28;20195;-86
2021/11/28 09:34:35;;;;;;;33.53;24.93;;;3.40;94.30;;;;;;5076484;28;20172;-86
2021/11/28 09:37:01;;;;;;;33.40;24.90;;;3.40;94.30;;;;;;5075981;28;20286;-86
2021/11/28 09:39:28;;;;;;;33.77;25.43;;;3.50;94.30;;;;;;5075642;28;20160;-86
2021/11/28 09:42:05;;;;;;;35.57;25.30;;;3.50;94.30;;;;;;5075546;28;20197;-86
2021/11/28 09:44:34;;;;;;;31.77;23.07;;;3.40;94.20;;;;;;5074297;28;20527;-86
2021/11/28 09:47:01;;;;;;;31.93;22.13;;;3.30;94.20;;;;;;5074658;28;20267;-86
2021/11/28 09:49:29;;;;;;;32.53;24.03;;;3.30;94.10;;;;;;5073892;28;20167;-86
2021/11/28 09:51:57;;;;;;;29.73;21.13;;;3.30;94.10;;;;;;5073786;28;20195;-86
2021/11/28 09:54:23;;;;;;;31.77;21.70;;;3.40;94.10;;;;;;5075084;28;20182;-86
2021/11/28 09:56:50;;;;;;;27.57;20.60;;;3.40;94.10;;;;;;5074961;28;20165;-86
2021/11/28 09:59:17;;;;;;;27.97;19.87;;;3.40;94.10;;;;;;5073830;28;20259;-86
2021/11/28 10:01:43;;;;;;;27.93;21.80;;;3.40;94.10;;;;;;5074930;28;20201;-86
2021/11/28 10:04:09;;;;;;;30.57;22.03;;;3.40;94.00;;;;;;5075021;28;20354;-86
2021/11/28 10:06:35;;;;;;;29.87;22.97;;;3.50;94.00;;;;;;5075396;28;20296;-86
2021/11/28 10:09:05;;;;;;;30.13;20.60;;;3.50;94.00;;;;;;5074798;28;20263;-86
2021/11/28 10:11:39;;;;;;;31.33;22.13;;;3.60;94.00;;;;;;5074639;28;20215;-87
2021/11/28 10:14:08;;;;;;;28.83;20.50;;;3.60;94.00;;;;;;5074759;28;20176;-86
2021/11/28 10:16:34;;;;;;;28.33;20.37;;;3.60;94.00;;;;;;5075194;28;20205;-86
2021/11/28 10:19:00;;;;;;;28.17;20.47;;;3.70;93.90;;;;;;5074436;28;20225;-87
2021/11/28 10:21:27;;;;;;;25.57;19.60;;;3.70;93.80;;;;;;5073465;28;20232;-87
2021/11/28 10:24:12;;;;;;;24.80;19.87;;;3.80;93.90;;;;;;5074555;28;20217;-86
2021/11/28 10:27:06;;;;;;;21.33;17.33;;;3.80;93.90;;;;;;5074542;28;20198;-86
2021/11/28 10:29:40;;;;;;;25.00;17.00;;;3.90;93.80;;;;;;5074402;28;20198;-87
2021/11/28 10:32:09;;;;;;;25.57;16.83;;;4.00;93.70;;;;;;5073597;28;20191;-86
2021/11/28 10:34:48;;;;;;;21.17;16.73;;;4.10;93.60;;;;;;5074587;28;20212;-88
2021/11/28 10:37:16;;;;;;;20.77;15.80;;;4.20;93.60;;;;;;5075117;28;20171;-87
2021/11/28 10:39:46;;;;;;;17.40;14.47;;;4.10;93.30;;;;;;5076878;28;20176;-86
2021/11/28 10:42:24;;;;;;;15.23;12.90;;;4.10;92.70;;;;;;5075195;28;20220;-88
2021/11/28 10:45:11;;;;;;;17.77;13.43;;;4.10;92.30;;;;;;5075062;28;20172;-86
2021/11/28 10:47:40;;;;;;;15.40;13.17;;;4.10;91.90;;;;;;5076499;28;20183;-86
2021/11/28 10:50:25;;;;;;;15.60;13.07;;;4.20;91.90;;;;;;5074253;28;20185;-86
2021/11/28 10:53:07;;;;;;;14.47;12.20;;;4.40;92.00;;;;;;5076074;28;20254;-87
2021/11/28 10:55:39;;;;;;;16.50;13.33;;;4.60;91.90;;;;;;5074024;28;20201;-87
2021/11/28 10:58:10;;;;;;;16.20;12.93;;;4.50;91.70;;;;;;5076261;28;20167;-87
2021/11/28 11:00:40;;;;;;;15.37;12.90;;;4.50;91.30;;;;;;5074422;28;20302;-86
2021/11/28 11:03:14;;;;;;;14.50;13.00;;;4.30;90.80;;;;;;5074005;28;20182;-86
2021/11/28 11:05:41;;;;;;;13.83;12.20;;;4.30;90.60;;;;;;5073140;28;20294;-86
2021/11/28 11:08:07;;;;;;;17.13;13.60;;;4.10;90.20;;;;;;5074506;28;20223;-86
2021/11/28 11:10:33;;;;;;;14.97;12.70;;;4.10;90.30;;;;;;5074704;28;20213;-86
2021/11/28 11:12:59;;;;;;;16.83;12.67;;;4.10;90.60;;;;;;5074696;28;20180;-86
2021/11/28 11:15:45;;;;;;;15.33;13.40;;;4.00;90.50;;;;;;5075441;28;20297;-86
2021/11/28 11:18:16;;;;;;;16.47;13.87;;;4.10;90.90;;;;;;5074484;28;20580;-86
2021/11/28 11:20:47;;;;;;;20.00;15.00;;;4.20;91.30;;;;;;5075563;28;20212;-86
2021/11/28 11:23:33;;;;;;;19.17;15.43;;;4.20;91.30;;;;;;5073344;28;20169;-88
2021/11/28 11:26:19;;;;;;;20.57;16.30;;;4.20;91.40;;;;;;5074281;28;20184;-86
2021/11/28 11:29:10;;;;;;;19.80;15.47;;;4.20;91.60;;;;;;5075316;28;20189;-86
2021/11/28 11:31:36;;;;;;;19.40;16.43;;;4.20;91.70;;;;;;5074420;28;20236;-85
2021/11/28 11:34:18;;;;;;;19.43;16.13;;;4.10;91.60;;;;;;5073118;28;20180;-86
2021/11/28 11:36:55;;;;;;;19.57;16.70;;;4.10;91.80;;;;;;5074515;28;20231;-86
2021/11/28 11:39:23;;;;;;;18.57;14.97;;;4.20;92.00;;;;;;5073730;28;20235;-86
2021/11/28 11:41:49;;;;;;;17.97;15.43;;;4.20;92.10;;;;;;5073891;28;20222;-88
2021/11/28 11:44:17;;;;;;;23.47;17.33;;;4.20;92.10;;;;;;5075170;28;20240;-86
2021/11/28 11:46:46;;;;;;;22.63;17.53;;;4.10;92.00;;;;;;5073559;28;20268;-86
2021/11/28 11:49:16;;;;;;;23.57;18.50;;;4.00;91.50;;;;;;5075170;28;20261;-87
2021/11/28 11:51:43;;;;;;;19.60;16.67;;;4.00;91.60;;;;;;5074373;28;20199;-87
2021/11/28 11:54:31;;;;;;;22.30;18.07;;;4.00;91.50;;;;;;5074352;28;20179;-87
2021/11/28 11:57:25;;;;;;;19.90;17.30;;;4.00;91.50;;;;;;5073342;28;20213;-86
2021/11/28 12:00:09;;;;;;;20.80;17.23;;;3.80;90.90;;;;;;5054481;28;20217;-86
2021/11/28 12:02:47;;;;;;;19.87;16.47;;;3.90;90.90;;;;;;5073671;28;20174;-87
2021/11/28 12:05:24;;;;;;;21.23;17.13;;;4.20;91.10;;;;;;5074272;28;20160;-86
2021/11/28 12:07:52;;;;;;;21.13;17.50;;;4.30;90.90;;;;;;5073794;28;20189;-86
2021/11/28 12:10:35;;;;;;;21.00;16.53;;;4.20;91.00;;;;;;5077939;28;20199;-87
2021/11/28 12:13:04;;;;;;;22.33;16.57;;;4.10;90.90;;;;;;5077318;28;20167;-86
2021/11/28 12:15:34;;;;;;;19.40;16.37;;;4.00;91.00;;;;;;5079118;28;20207;-86
2021/11/28 12:18:00;;;;;;;19.87;16.67;;;3.90;90.90;;;;;;5076384;28;20667;-86
2021/11/28 12:20:49;;;;;;;19.50;16.60;;;3.90;91.00;;;;;;5077590;28;20589;-86
2021/11/28 12:23:43;;;;;;;16.87;14.47;;;3.90;91.10;;;;;;5076375;28;20179;-86
2021/11/28 12:26:27;;;;;;;19.13;15.67;;;3.80;90.50;;;;;;5076085;28;20179;-86
2021/11/28 12:29:14;;;;;;;16.90;14.83;;;3.80;90.90;;;;;;5077887;28;20172;-86
2021/11/28 12:32:16;;;;;;;17.67;15.40;;;3.90;91.10;;;;;;5075859;28;20289;-86
2021/11/28 12:34:45;;;;;;;18.13;14.87;;;3.90;90.60;;;;;;5072617;28;20190;-85
2021/11/28 12:37:23;;;;;;;17.70;15.73;;;3.90;90.60;;;;;;5077487;28;20206;-86
2021/11/28 12:39:51;;;;;;;21.27;16.00;;;3.90;90.70;;;;;;5077052;28;20173;-86
2021/11/28 12:42:21;;;;;;;17.63;14.67;;;3.90;90.70;;;;;;5075812;28;20202;-87
2021/11/28 12:44:58;;;;;;;15.47;13.70;;;4.00;90.80;;;;;;5077853;28;20161;-86
2021/11/28 12:47:26;;;;;;;15.20;13.57;;;3.90;90.00;;;;;;5076885;28;20167;-86